Aérodrome :
LOGIN :

S'inscrire | Disclaimer

   EN    FR    IT 

 










Légende :    VFR   VFR Marginal   IFR   IFR Intensif   IFR Très Intensif
Visi : 
Plafond : 
>= 8 km
>= 3000ft
5 à 8 km
1000 à 3000 ft
1500m à 5 km
500 à 1000 ft
800 à 1500m
200 à 500 ft
< 800m
< 200 ft
Symboles :   Orages  Brouillard  Fortes neiges  Fortes précipitations  Vent > 20 kt
SIGMETs :   Divers  Orages  Givrage  Turbulence  Onde Orograph.  Cendres Volcan.







- Altitude de l'aérodrome : 53 ft
- Code IATA : AGP


LEMG - Malaga

DERNIER METAR :
  • 241130Z 12008KT 090V160 CAVOK 28/12 Q1011 NOSIG

METARs EXPIRÉS :
  • 241100Z 14008KT 100V170 CAVOK 27/11 Q1011 NOSIG
  • 241030Z 15007KT 100V170 CAVOK 27/09 Q1011 NOSIG
  • 241000Z 11006KT 070V140 CAVOK 25/10 Q1012 NOSIG
  • 240930Z 11003KT 070V170 CAVOK 25/10 Q1012 NOSIG
  • 240900Z 00000KT CAVOK 25/08 Q1012 NOSIG

TAF TAF LEMG
Valide du 24 à 12h jusqu'au 25 à 12h UTC


241100Z 2412/2512 17010KT CAVOK TX29/2415Z TN16/2505Z
BECMG 2415/2417 VRB02KT
BECMG 2421/2423 09014KT
PROB40
TEMPO 2422/2424 09020G32KT
BECMG 2501/2504 29004KT
BECMG 2508/2510 13009KT
Pas de NOTAMs connus pour ce terrain.
2 SIGMETs publiés pour la FIR Madrid (LECM) :
 
Orages noyés dans la masse
LECM SIGMET 7 VALID 241110/241500 LEVA
LECM MADRID FIR/UIR EMBD TS OBS AT 0930Z WI N4130 W00136 - N4114 W00038 - N3844 W00126 - N3854 W00244 - N4130 W00136 TOP FL320 MOV E NC=
Turbulence forte
LECM SIGMET 4 VALID 240800/241200 LEVA
LECM MADRID UIR SEV TURB FCST WI N4347 W00234 - N4155 W00334 - N4119 W00148 - N4253 W00047 - N4347 W00234 FL250/340 MOV E WKN=



MET'MAP, la Météo Aéronautique d'un coup d'oeil ! - Copyright ORBIFLY Décembre 2007 - Disclaimer

ORBIFLY MET'MAP TEAM :

Programmation & Développement : Alexandra Zaïnal
Conception & Développement : Baudouin d'Aumeries
Co-Programmation & Développement : Marc-Olivier Méhu
Soutien technique & logistique : Manuel Goepfert

Contact : metmap@orbifly.com




SOURCES & CREDITS :

   NOAA